createdAt,value
2018-07-02T00:01:07.997Z,100952.78
2018-07-02T00:06:32.773Z,100949.48
2018-07-02T00:11:36.281Z,100954.70
2018-07-02T00:16:40.432Z,100956.58
2018-07-02T00:21:43.950Z,100950.23
2018-07-02T00:26:48.635Z,100949.57
2018-07-02T00:31:52.176Z,100939.73
2018-07-02T00:36:55.952Z,100936.13
2018-07-02T00:42:00.125Z,100928.66
2018-07-02T00:47:03.693Z,100916.39
2018-07-02T00:52:07.544Z,100918.20
2018-07-02T00:57:17.047Z,100918.04
2018-07-02T01:02:20.600Z,100904.83
2018-07-02T01:07:24.324Z,100904.86
2018-07-02T01:12:27.917Z,100903.66
2018-07-02T01:17:32.026Z,100902.70
2018-07-02T01:22:35.529Z,100902.73
2018-07-02T01:27:39.089Z,100897.00
2018-07-02T01:32:43.865Z,100892.61
2018-07-02T01:37:47.631Z,100890.41
2018-07-02T01:42:51.150Z,100897.51
2018-07-02T01:47:54.749Z,100893.75
2018-07-02T01:52:58.465Z,100896.88
2018-07-02T01:58:02.120Z,100902.66
2018-07-02T02:03:05.807Z,100900.98
2018-07-02T02:08:09.784Z,100909.59
2018-07-02T02:13:13.927Z,100913.41
2018-07-02T02:18:17.749Z,100913.22
2018-07-02T02:23:21.265Z,100911.27
2018-07-02T02:28:28.169Z,100909.88
2018-07-02T02:33:32.669Z,100905.50
2018-07-02T02:38:36.229Z,100915.66
2018-07-02T02:43:39.795Z,100921.46
2018-07-02T02:48:43.742Z,100923.17
2018-07-02T02:53:47.331Z,100916.22
2018-07-02T02:58:51.501Z,100926.70
2018-07-02T03:03:55.077Z,100930.30
2018-07-02T03:08:58.659Z,100931.61
2018-07-02T03:14:02.259Z,100928.69
2018-07-02T03:19:06.288Z,100925.70
2018-07-02T03:24:10.235Z,100928.87
2018-07-02T03:29:13.880Z,100929.25
2018-07-02T03:34:18.356Z,100937.85
2018-07-02T03:39:21.877Z,100936.20
2018-07-02T03:44:25.674Z,100932.50
2018-07-02T03:49:29.304Z,100932.89
2018-07-02T03:54:33.054Z,100927.86
2018-07-02T03:59:36.687Z,100929.72
2018-07-02T04:04:40.966Z,100936.27
2018-07-02T04:09:44.579Z,100940.20
2018-07-02T04:14:48.660Z,100940.26
2018-07-02T04:19:52.709Z,100935.70
2018-07-02T04:24:56.406Z,100943.80
2018-07-02T04:29:59.927Z,100944.11
2018-07-02T04:35:03.630Z,100938.19
2018-07-02T04:40:07.267Z,100947.95
2018-07-02T04:45:10.927Z,100960.44
2018-07-02T04:50:14.509Z,100960.62
2018-07-02T04:55:18.080Z,100949.19
2018-07-02T05:00:21.637Z,100956.41
2018-07-02T05:05:25.312Z,100958.84
2018-07-02T05:10:28.873Z,100960.38
2018-07-02T05:15:32.387Z,100959.75
2018-07-02T05:20:35.914Z,100955.02
2018-07-02T05:25:39.383Z,100951.19
2018-07-02T05:30:44.062Z,100959.36
2018-07-02T05:35:47.549Z,100956.70
2018-07-02T05:40:51.265Z,100955.13
2018-07-02T05:45:55.861Z,100955.71
2018-07-02T05:50:59.945Z,100955.12
2018-07-02T05:56:03.530Z,100959.81
2018-07-02T06:01:07.049Z,100955.78
2018-07-02T06:06:10.814Z,100953.23
2018-07-02T06:11:14.356Z,100956.59
2018-07-02T06:16:18.316Z,100948.75
2018-07-02T06:21:23.722Z,100951.48
2018-07-02T06:26:27.310Z,100947.38
2018-07-02T06:31:30.889Z,100946.92
2018-07-02T06:36:34.483Z,100939.11
2018-07-02T06:41:38.238Z,100946.55
2018-07-02T06:46:41.716Z,100939.63
2018-07-02T06:51:45.670Z,100936.95
2018-07-02T06:56:49.461Z,100936.84
2018-07-02T07:01:53.158Z,100941.98
2018-07-02T07:06:56.841Z,100951.87
2018-07-02T07:12:00.745Z,100946.36
2018-07-02T07:17:04.210Z,100939.18
2018-07-02T07:22:08.097Z,100939.86
2018-07-02T07:27:11.587Z,100940.24
2018-07-02T07:32:15.284Z,100938.98
2018-07-02T07:37:19.622Z,100939.97
2018-07-02T07:42:23.345Z,100945.81
2018-07-02T07:47:27.040Z,100946.34
2018-07-02T07:52:30.757Z,100949.04
2018-07-02T07:57:34.240Z,100943.78
2018-07-02T08:02:37.799Z,100951.44
2018-07-02T08:07:41.396Z,100952.42
2018-07-02T08:12:45.307Z,100954.64
2018-07-02T08:17:48.786Z,100955.17
2018-07-02T08:22:52.521Z,100947.08
2018-07-02T08:27:56.578Z,100956.48
2018-07-02T08:33:00.184Z,100949.09
2018-07-02T08:38:03.779Z,100947.47
2018-07-02T08:43:07.349Z,100949.87
2018-07-02T08:48:11.150Z,100945.30
2018-07-02T08:53:14.684Z,100938.48
2018-07-02T08:58:18.181Z,100924.48
2018-07-02T09:03:22.325Z,100934.91
2018-07-02T09:08:25.785Z,100935.60
2018-07-02T09:13:29.295Z,100930.76
2018-07-02T09:18:32.942Z,100932.30
2018-07-02T09:23:36.588Z,100914.23
2018-07-02T09:28:40.993Z,100920.88
2018-07-02T09:33:45.357Z,100914.68
2018-07-02T09:38:48.876Z,100919.45
2018-07-02T09:43:52.410Z,100912.89
2018-07-02T09:48:56.007Z,100919.54
2018-07-02T09:54:00.282Z,100913.27
2018-07-02T09:59:04.436Z,100909.25
2018-07-02T10:04:08.323Z,100913.17
2018-07-02T10:09:12.979Z,100907.75
2018-07-02T10:14:16.985Z,100909.08
2018-07-02T10:19:20.473Z,100910.69
2018-07-02T10:24:25.381Z,100903.70
2018-07-02T10:29:29.752Z,100921.82
2018-07-02T10:34:34.493Z,100910.22
2018-07-02T10:39:37.956Z,100912.02
2018-07-02T10:44:41.549Z,100905.20
2018-07-02T10:49:45.029Z,100902.36
2018-07-02T10:54:50.689Z,100899.49
2018-07-02T10:59:54.184Z,100891.59
2018-07-02T11:04:57.775Z,100902.03
2018-07-02T11:10:02.154Z,100888.73
2018-07-02T11:15:06.399Z,100873.98
2018-07-02T11:20:09.895Z,100879.09
2018-07-02T11:25:13.601Z,100882.91
2018-07-02T11:30:21.852Z,100881.14
2018-07-02T11:35:25.435Z,100874.87
2018-07-02T11:40:28.914Z,100871.91
2018-07-02T11:45:32.446Z,100868.11
2018-07-02T11:50:36.023Z,100864.91
2018-07-02T11:55:39.590Z,100858.94
2018-07-02T12:00:48.157Z,100867.06
2018-07-02T12:05:51.927Z,100857.02
2018-07-02T12:10:56.348Z,100861.05
2018-07-02T12:15:59.919Z,100872.05
2018-07-02T12:21:04.526Z,100864.91
2018-07-02T12:26:08.207Z,100872.78
2018-07-02T12:31:11.709Z,100874.47
2018-07-02T12:36:15.781Z,100870.73
2018-07-02T12:41:19.263Z,100873.14
2018-07-02T12:46:22.845Z,100871.45
2018-07-02T12:51:26.327Z,100869.78
2018-07-02T12:56:31.832Z,100872.27
2018-07-02T13:01:36.310Z,100874.91
2018-07-02T13:06:39.941Z,100859.27
2018-07-02T13:11:43.452Z,100855.97
2018-07-02T13:16:47.083Z,100855.94
2018-07-02T13:21:50.613Z,100856.98
2018-07-02T13:26:54.245Z,100857.07
2018-07-02T13:31:57.779Z,100845.17
2018-07-02T13:37:01.302Z,100847.64
2018-07-02T13:42:04.824Z,100845.14
2018-07-02T13:47:08.344Z,100833.66
2018-07-02T13:52:11.853Z,100842.84
2018-07-02T13:57:16.289Z,100843.68
2018-07-02T14:02:19.844Z,100826.01
2018-07-02T14:07:23.521Z,100826.30
2018-07-02T14:12:27.054Z,100823.98
2018-07-02T14:17:30.644Z,100819.94
2018-07-02T14:22:34.204Z,100819.80
2018-07-02T14:27:37.793Z,100833.59
2018-07-02T14:32:41.305Z,100830.56
2018-07-02T14:37:45.200Z,100824.55
2018-07-02T14:42:49.263Z,100827.89
2018-07-02T14:47:52.886Z,100820.03
2018-07-02T14:52:56.565Z,100816.07
2018-07-02T14:58:00.091Z,100811.77
2018-07-02T15:03:04.976Z,100807.69
2018-07-02T15:08:08.502Z,100807.59
2018-07-02T15:13:12.216Z,100789.84
2018-07-02T15:18:16.227Z,100798.81
2018-07-02T15:23:20.786Z,100801.55
2018-07-02T15:28:24.476Z,100803.78
2018-07-02T15:33:28.087Z,100812.48
2018-07-02T15:38:32.237Z,100817.41
2018-07-02T15:43:36.073Z,100809.17
2018-07-02T15:48:39.537Z,100813.19
2018-07-02T15:53:43.214Z,100806.71
2018-07-02T15:58:47.212Z,100809.55
2018-07-02T16:03:51.178Z,100809.29
2018-07-02T16:08:55.337Z,100804.57
2018-07-02T16:13:59.760Z,100818.91
2018-07-02T16:19:04.076Z,100814.11
2018-07-02T16:24:10.172Z,100803.98
2018-07-02T16:29:13.912Z,100801.27
2018-07-02T16:34:17.912Z,100807.82
2018-07-02T16:39:21.508Z,100810.79
2018-07-02T16:44:25.288Z,100809.36
2018-07-02T16:49:28.747Z,100805.99
2018-07-02T16:54:32.434Z,100803.80
2018-07-02T16:59:36.817Z,100805.18
2018-07-02T17:04:40.360Z,100788.89
2018-07-02T17:09:43.866Z,100793.77
2018-07-02T17:14:47.741Z,100800.86
2018-07-02T17:19:51.244Z,100798.73
2018-07-02T17:24:54.950Z,100801.28
2018-07-02T17:29:58.465Z,100792.45
2018-07-02T17:35:02.469Z,100807.94
2018-07-02T17:40:08.165Z,100807.63
2018-07-02T17:45:11.714Z,100809.54
2018-07-02T17:50:15.287Z,100802.05
2018-07-02T17:55:19.995Z,100797.59
2018-07-02T18:00:31.233Z,100811.31
2018-07-02T18:05:34.792Z,100805.45
2018-07-02T18:10:38.986Z,100815.16
2018-07-02T18:15:42.558Z,100818.39
2018-07-02T18:20:46.060Z,100814.38
2018-07-02T18:25:49.650Z,100798.09
2018-07-02T18:30:54.016Z,100803.52
2018-07-02T18:35:58.442Z,100804.86
2018-07-02T18:41:01.979Z,100814.92
2018-07-02T18:46:05.653Z,100809.66
2018-07-02T18:51:11.659Z,100826.08
2018-07-02T18:56:15.429Z,100830.36
2018-07-02T19:01:19.430Z,100831.59
2018-07-02T19:06:23.585Z,100825.27
2018-07-02T19:11:27.320Z,100836.27
2018-07-02T19:16:30.846Z,100831.09
2018-07-02T19:21:34.907Z,100830.36
2018-07-02T19:26:39.792Z,100836.05
2018-07-02T19:31:43.817Z,100830.63
2018-07-02T19:36:47.331Z,100841.89
2018-07-02T19:41:50.852Z,100847.28
2018-07-02T19:46:54.416Z,100848.45
2018-07-02T19:51:58.386Z,100860.11
2018-07-02T19:57:01.984Z,100870.77
2018-07-02T20:02:05.777Z,100866.92
2018-07-02T20:07:09.378Z,100874.78
2018-07-02T20:12:13.479Z,100874.13
2018-07-02T20:17:18.126Z,100877.61
2018-07-02T20:22:22.271Z,100873.41
2018-07-02T20:27:26.651Z,100880.31
2018-07-02T20:32:30.403Z,100883.34
2018-07-02T20:37:34.559Z,100886.91
2018-07-02T20:42:38.083Z,100880.31
2018-07-02T20:47:41.614Z,100887.83
2018-07-02T20:52:45.124Z,100889.73
2018-07-02T20:57:50.299Z,100894.13
2018-07-02T21:02:53.930Z,100895.88
2018-07-02T21:07:57.593Z,100892.50
2018-07-02T21:13:01.085Z,100890.92
2018-07-02T21:18:04.683Z,100902.00
2018-07-02T21:23:08.161Z,100902.14
2018-07-02T21:28:12.794Z,100896.45
2018-07-02T21:33:16.347Z,100899.22
2018-07-02T21:38:19.949Z,100898.22
2018-07-02T21:43:23.516Z,100896.50
2018-07-02T21:48:27.142Z,100903.20
2018-07-02T21:53:31.000Z,100905.66
2018-07-02T21:58:34.588Z,100910.10
2018-07-02T22:03:38.795Z,100914.52
2018-07-02T22:08:43.354Z,100911.54
2018-07-02T22:13:47.534Z,100911.69
2018-07-02T22:18:51.487Z,100920.12
2018-07-02T22:23:55.368Z,100922.47
2018-07-02T22:28:58.837Z,100925.25
2018-07-02T22:34:03.334Z,100926.50
2018-07-02T22:39:10.400Z,100924.22
2018-07-02T22:44:13.925Z,100922.16
2018-07-02T22:49:17.452Z,100918.69
2018-07-02T22:54:21.399Z,100924.58
2018-07-02T22:59:24.925Z,100918.61
2018-07-02T23:04:28.517Z,100926.16
2018-07-02T23:09:32.093Z,100931.93
2018-07-02T23:14:35.878Z,100938.59
2018-07-02T23:19:39.933Z,100940.77
2018-07-02T23:24:43.534Z,100941.35
2018-07-02T23:29:47.271Z,100937.92
2018-07-02T23:34:50.881Z,100940.16
2018-07-02T23:39:54.440Z,100931.30
2018-07-02T23:44:57.984Z,100932.80
2018-07-02T23:50:01.493Z,100931.23
2018-07-02T23:55:05.739Z,100932.84
